Time;durP1;ratioP1;P1;durP2;ratioP2;P2;SDS_P1;SDS_P2;PMS_P1;PMS_P2;Temp;Humidity;BMP_temperature;BMP_pressure;BME280_temperature;BME280_humidity;BME280_pressure;Samples;Min_cycle;Max_cycle;Signal;HPM_P1;HPM_P2
2020/12/10 00:00:36;;;;;;;28.23;14.50;;;;;;;-3.59;95.65;97278.23;1774391;80;21199;-80
2020/12/10 00:03:03;;;;;;;31.40;14.90;;;;;;;-3.59;95.72;97271.89;1774436;81;20929;-77
2020/12/10 00:05:31;;;;;;;32.43;15.50;;;;;;;-3.60;95.79;97275.31;1774349;81;20924;-78
2020/12/10 00:07:59;;;;;;;31.93;16.47;;;;;;;-3.59;95.90;97275.27;1774415;79;21110;-78
2020/12/10 00:10:27;;;;;;;30.33;16.03;;;;;;;-3.57;95.96;97281.56;1774446;79;21126;-79
2020/12/10 00:12:56;;;;;;;35.63;17.37;;;;;;;-3.56;96.01;97270.52;1774454;81;21621;-79
2020/12/10 00:15:24;;;;;;;33.60;17.03;;;;;;;-3.51;96.11;97267.42;1774501;81;20913;-77
2020/12/10 00:17:51;;;;;;;33.27;16.50;;;;;;;-3.48;96.05;97263.51;1774492;79;20917;-77
2020/12/10 00:20:18;;;;;;;34.77;15.67;;;;;;;-3.47;95.84;97267.74;1774366;81;21315;-78
2020/12/10 00:22:45;;;;;;;32.80;14.63;;;;;;;-3.50;95.80;97261.45;1774438;80;21418;-76
2020/12/10 00:25:12;;;;;;;30.07;17.00;;;;;;;-3.53;95.96;97262.83;1774468;81;21319;-77
2020/12/10 00:27:40;;;;;;;33.80;14.97;;;;;;;-3.54;96.02;97265.80;1774363;81;21107;-78
2020/12/10 00:30:08;;;;;;;31.97;17.00;;;;;;;-3.54;96.13;97267.52;1774419;79;20968;-78
2020/12/10 00:32:36;;;;;;;36.63;18.43;;;;;;;-3.54;96.15;97263.70;1774303;79;21055;-77
2020/12/10 00:35:05;;;;;;;33.50;16.40;;;;;;;-3.58;96.21;97251.50;1774527;80;20925;-78
2020/12/10 00:37:34;;;;;;;37.13;16.37;;;;;;;-3.57;96.40;97259.95;1774490;81;21334;-78
2020/12/10 00:40:01;;;;;;;33.27;16.73;;;;;;;-3.54;96.44;97257.34;1774391;79;20937;-77
2020/12/10 00:42:28;;;;;;;28.83;14.20;;;;;;;-3.53;96.36;97256.47;1774428;81;20992;-75
2020/12/10 00:44:56;;;;;;;37.63;19.03;;;;;;;-3.52;96.37;97260.67;1774345;81;21150;-75
2020/12/10 00:47:23;;;;;;;37.10;18.67;;;;;;;-3.49;96.50;97254.22;1774453;80;21314;-74
2020/12/10 00:49:51;;;;;;;36.40;16.47;;;;;;;-3.47;96.36;97255.03;1774534;81;21311;-75
2020/12/10 00:52:22;;;;;;;35.47;16.33;;;;;;;-3.48;96.22;97257.98;1774268;79;20960;-74
2020/12/10 00:54:49;;;;;;;30.63;16.33;;;;;;;-3.46;96.28;97255.42;1762583;81;20969;-74
2020/12/10 00:57:17;;;;;;;38.20;17.20;;;;;;;-3.46;96.28;97249.06;1774474;81;21003;-74
2020/12/10 00:59:44;;;;;;;33.40;15.93;;;;;;;-3.48;96.25;97254.61;1774497;79;20992;-74
2020/12/10 01:02:11;;;;;;;36.43;17.63;;;;;;;-3.47;96.26;97248.67;1774513;81;22224;-75
2020/12/10 01:04:38;;;;;;;36.30;16.27;;;;;;;-3.48;96.34;97240.63;1774415;79;21000;-75
2020/12/10 01:07:05;;;;;;;35.90;17.90;;;;;;;-3.45;96.47;97240.55;1774494;81;21031;-75
2020/12/10 01:09:32;;;;;;;36.00;17.63;;;;;;;-3.43;96.41;97239.63;1774489;81;20929;-75
2020/12/10 01:12:03;;;;;;;34.57;16.03;;;;;;;-3.43;96.35;97237.52;1774450;79;20995;-76
2020/12/10 01:14:31;;;;;;;30.73;15.90;;;;;;;-3.43;96.42;97246.42;1774422;81;21019;-75
2020/12/10 01:16:58;;;;;;;35.43;16.47;;;;;;;-3.44;96.34;97228.23;1774355;81;20975;-75
2020/12/10 01:19:26;;;;;;;28.50;15.27;;;;;;;-3.48;96.44;97231.29;1774373;81;21386;-75
2020/12/10 01:21:53;;;;;;;32.87;15.60;;;;;;;-3.50;96.63;97227.14;1774465;80;20913;-75
2020/12/10 01:24:20;;;;;;;31.33;14.90;;;;;;;-3.50;96.84;97223.32;1774364;81;21330;-75
2020/12/10 01:26:47;;;;;;;31.23;15.63;;;;;;;-3.49;97.04;97213.10;1774402;81;21074;-75
2020/12/10 01:29:14;;;;;;;34.33;16.70;;;;;;;-3.47;97.03;97206.28;1774319;79;20940;-75
2020/12/10 01:31:42;;;;;;;35.27;17.73;;;;;;;-3.43;97.20;97208.28;1774404;81;20929;-75
2020/12/10 01:34:09;;;;;;;35.93;16.77;;;;;;;-3.35;97.29;97196.62;1774348;81;21119;-75
2020/12/10 01:36:37;;;;;;;36.07;15.87;;;;;;;-3.32;97.07;97171.91;1774480;81;20932;-78
2020/12/10 01:39:05;;;;;;;29.63;14.23;;;;;;;-3.30;96.83;97186.70;1774463;81;21346;-80
2020/12/10 01:41:33;;;;;;;34.80;17.73;;;;;;;-3.28;96.79;97195.55;1774435;81;21347;-78
2020/12/10 01:44:08;;;;;;;36.10;16.03;;;;;;;-3.29;96.62;97184.99;1774414;80;20933;-78
2020/12/10 01:46:37;;;;;;;35.53;17.93;;;;;;;-3.30;96.64;97184.16;1774468;79;21011;-79
2020/12/10 01:49:05;;;;;;;34.93;17.03;;;;;;;-3.31;96.72;97195.22;1774436;80;21039;-77
2020/12/10 01:51:32;;;;;;;35.03;17.00;;;;;;;-3.31;96.74;97158.34;1774359;79;21360;-79
2020/12/10 01:54:00;;;;;;;28.97;13.07;;;;;;;-3.33;96.85;97161.79;1789560;79;20937;-78
2020/12/10 01:56:27;;;;;;;32.50;14.50;;;;;;;-3.31;97.07;97161.30;1798051;79;21006;-78
2020/12/10 01:59:00;;;;;;;32.47;15.67;;;;;;;-3.28;97.07;97149.78;1797966;79;20913;-78
2020/12/10 02:01:31;;;;;;;34.23;17.27;;;;;;;-3.26;96.99;97153.93;1797965;79;21498;-79
2020/12/10 02:04:00;;;;;;;34.05;15.55;;;;;;;-3.24;96.76;97152.16;1798131;79;21128;-78
2020/12/10 02:06:28;;;;;;;30.20;15.13;;;;;;;-3.26;96.66;97150.11;1797954;79;21410;-77
2020/12/10 02:08:55;;;;;;;31.63;15.20;;;;;;;-3.29;96.60;97146.41;1798026;79;20932;-77
2020/12/10 02:11:26;;;;;;;41.03;17.93;;;;;;;-3.32;96.73;97140.13;1797962;79;20925;-78
2020/12/10 02:13:52;;;;;;;30.73;16.07;;;;;;;-3.31;96.88;97135.87;1798023;79;20929;-77
2020/12/10 02:16:19;;;;;;;31.67;15.77;;;;;;;-3.30;96.93;97135.84;1797936;79;21254;-79
2020/12/10 02:18:53;;;;;;;33.63;16.07;;;;;;;-3.29;96.96;97125.23;1798046;79;21000;-78
2020/12/10 02:21:20;;;;;;;36.07;16.40;;;;;;;-3.27;97.05;97126.84;1775606;79;20964;-78
2020/12/10 02:23:54;;;;;;;34.53;15.77;;;;;;;-3.27;96.90;97121.75;1797944;79;21398;-79
2020/12/10 02:26:23;;;;;;;33.07;15.27;;;;;;;-3.27;97.00;97116.66;1797761;79;20932;-78
2020/12/10 02:28:50;;;;;;;33.33;15.00;;;;;;;-3.24;97.06;97112.73;1798046;79;21969;-79
2020/12/10 02:31:24;;;;;;;34.03;17.13;;;;;;;-3.22;96.85;97103.81;1797890;79;21162;-79
2020/12/10 02:34:03;;;;;;;39.90;16.73;;;;;;;-3.21;96.90;97096.13;1798035;79;20870;-77
2020/12/10 02:36:30;;;;;;;36.50;17.57;;;;;;;-3.19;96.86;97086.73;1797733;79;21369;-78
2020/12/10 02:38:58;;;;;;;32.23;16.37;;;;;;;-3.19;96.81;97077.00;1797944;79;20991;-78
2020/12/10 02:41:25;;;;;;;33.23;14.67;;;;;;;-3.18;96.82;97085.84;1797934;79;22533;-77
2020/12/10 02:43:52;;;;;;;28.10;15.17;;;;;;;-3.16;96.71;97076.88;1797932;79;21031;-78
2020/12/10 02:46:20;;;;;;;32.83;16.30;;;;;;;-3.15;96.66;97076.83;1798035;79;20992;-78
2020/12/10 02:48:47;;;;;;;37.67;18.17;;;;;;;-3.19;96.55;97071.47;1798045;79;20999;-77
2020/12/10 02:51:14;;;;;;;34.83;15.77;;;;;;;-3.15;96.75;97079.81;1797948;79;21307;-79
2020/12/10 02:53:41;;;;;;;31.33;16.33;;;;;;;-3.19;96.61;97070.20;1797870;79;21031;-80
2020/12/10 02:56:12;;;;;;;32.57;15.50;;;;;;;-3.20;96.68;97081.25;1798005;79;21107;-79
2020/12/10 02:58:39;;;;;;;30.67;14.53;;;;;;;-3.18;96.79;97092.64;1797843;79;21015;-80
2020/12/10 03:01:08;;;;;;;32.77;16.00;;;;;;;-3.18;96.77;97085.02;1797910;79;21019;-81
2020/12/10 03:03:35;;;;;;;32.00;16.00;;;;;;;-3.18;96.90;97069.31;1798019;79;20877;-81
2020/12/10 03:06:07;;;;;;;32.47;16.93;;;;;;;-3.18;96.84;97060.41;1797997;79;21890;-79
2020/12/10 03:08:35;;;;;;;29.13;14.70;;;;;;;-3.18;96.76;97060.85;1797849;79;21310;-79
2020/12/10 03:11:05;;;;;;;34.37;15.07;;;;;;;-3.21;96.87;97047.80;1797905;79;21284;-79
2020/12/10 03:13:33;;;;;;;34.23;15.23;;;;;;;-3.23;97.00;97040.64;1797968;79;21023;-79
2020/12/10 03:16:01;;;;;;;31.50;15.40;;;;;;;-3.22;97.20;97044.05;1797972;79;21307;-79
2020/12/10 03:18:29;;;;;;;32.40;15.13;;;;;;;-3.25;97.24;97044.13;1797883;79;21373;-79
2020/12/10 03:20:56;;;;;;;29.27;14.20;;;;;;;-3.26;97.41;97054.74;1797820;79;21390;-78
2020/12/10 03:23:23;;;;;;;28.80;15.60;;;;;;;-3.23;97.54;97043.19;1797953;79;21417;-79
2020/12/10 03:25:50;;;;;;;25.63;13.30;;;;;;;-3.21;97.59;97031.27;1797920;79;21353;-79
2020/12/10 03:28:17;;;;;;;27.50;13.53;;;;;;;-3.22;97.38;97028.78;1797963;79;20980;-78
2020/12/10 03:30:44;;;;;;;26.60;14.80;;;;;;;-3.24;97.42;97021.18;1797936;79;21269;-79
2020/12/10 03:33:11;;;;;;;25.13;12.47;;;;;;;-3.26;97.57;97021.68;1797912;79;20932;-78
2020/12/10 03:35:39;;;;;;;28.87;14.83;;;;;;;-3.24;97.74;97024.16;1797847;79;20956;-78
2020/12/10 03:38:06;;;;;;;25.37;12.30;;;;;;;-3.25;97.68;97032.23;1797928;79;21000;-78
2020/12/10 03:40:33;;;;;;;25.67;12.67;;;;;;;-3.25;97.89;97014.44;1797892;79;21323;-78
2020/12/10 03:43:00;;;;;;;24.77;13.17;;;;;;;-3.25;98.05;97024.61;1797891;79;21129;-77
2020/12/10 03:45:27;;;;;;;23.73;12.07;;;;;;;-3.23;98.12;97014.38;1797898;79;20968;-79
2020/12/10 03:47:55;;;;;;;28.37;14.67;;;;;;;-3.21;98.18;96992.30;1797916;79;21323;-78
2020/12/10 03:50:23;;;;;;;26.63;13.43;;;;;;;-3.24;98.27;97007.19;1797884;79;20980;-78
2020/12/10 03:52:50;;;;;;;29.57;16.40;;;;;;;-3.24;98.44;97013.99;1797904;79;20907;-79
2020/12/10 03:55:18;;;;;;;26.73;13.53;;;;;;;-3.25;98.47;97003.44;1797860;79;21200;-78
2020/12/10 03:57:45;;;;;;;24.90;13.23;;;;;;;-3.24;98.61;97000.00;1797985;79;20940;-78
2020/12/10 04:00:12;;;;;;;28.03;15.37;;;;;;;-3.19;98.73;96994.34;1798049;79;20932;-78
2020/12/10 04:02:39;;;;;;;25.83;13.30;;;;;;;-3.18;98.52;97013.35;1797936;79;20968;-78
2020/12/10 04:05:06;;;;;;;25.63;14.00;;;;;;;-3.16;98.48;97003.13;1797936;79;20964;-79
2020/12/10 04:07:33;;;;;;;28.17;13.50;;;;;;;-3.17;98.32;97001.02;1797941;79;21198;-79
2020/12/10 04:10:01;;;;;;;25.00;13.43;;;;;;;-3.17;98.14;96989.58;1797816;79;20924;-78
2020/12/10 04:12:28;;;;;;;26.60;14.30;;;;;;;-3.17;98.23;97006.11;1797835;79;20984;-78
2020/12/10 04:14:55;;;;;;;23.37;12.53;;;;;;;-3.15;98.17;96980.61;1798130;79;20908;-79
2020/12/10 04:17:22;;;;;;;24.37;12.20;;;;;;;-3.19;97.98;96990.08;1798050;79;21035;-79
2020/12/10 04:19:50;;;;;;;21.83;11.77;;;;;;;-3.21;98.01;96980.41;1798082;79;21186;-78
2020/12/10 04:22:17;;;;;;;25.03;13.20;;;;;;;-3.21;98.08;96984.22;1798001;79;21015;-78
2020/12/10 04:24:44;;;;;;;23.53;12.67;;;;;;;-3.21;98.16;96991.02;1798095;79;20929;-78
2020/12/10 04:27:11;;;;;;;25.77;13.93;;;;;;;-3.21;98.32;96979.13;1797998;79;20921;-78
2020/12/10 04:29:39;;;;;;;24.80;12.40;;;;;;;-3.20;98.33;96978.25;1798103;79;21517;-78
2020/12/10 04:32:06;;;;;;;24.53;12.90;;;;;;;-3.17;98.35;96982.39;1798142;79;21914;-78
2020/12/10 04:34:33;;;;;;;22.30;11.13;;;;;;;-3.14;98.35;96990.77;1797986;79;20924;-78
2020/12/10 04:37:00;;;;;;;23.97;12.10;;;;;;;-3.12;98.26;96970.35;1798075;79;21390;-78
2020/12/10 04:39:29;;;;;;;24.03;13.47;;;;;;;-3.08;98.21;96972.34;1795200;79;20980;-78
2020/12/10 04:41:56;;;;;;;22.90;11.80;;;;;;;-3.08;98.02;96967.25;1798159;79;20983;-79
2020/12/10 04:44:24;;;;;;;22.03;11.63;;;;;;;-3.11;98.01;96951.22;1798051;79;22074;-79
2020/12/10 04:46:51;;;;;;;21.77;11.90;;;;;;;-3.11;98.04;96955.03;1798075;79;21036;-80
2020/12/10 04:49:18;;;;;;;25.50;13.03;;;;;;;-3.09;98.22;96956.69;1798129;79;20984;-79
2020/12/10 04:51:45;;;;;;;22.50;11.53;;;;;;;-3.07;98.26;96969.73;1798152;79;20908;-79
2020/12/10 04:54:12;;;;;;;23.47;10.93;;;;;;;-3.06;98.14;96959.11;1791312;79;20917;-79
2020/12/10 04:56:39;;;;;;;20.40;10.40;;;;;;;-3.07;97.93;96970.17;1762300;81;21386;-80
2020/12/10 04:59:06;;;;;;;24.43;12.23;;;;;;;-3.09;97.76;96977.04;1774488;80;20984;-81
2020/12/10 05:01:34;;;;;;;22.50;11.77;;;;;;;-3.12;97.85;96968.64;1774657;79;20924;-79
2020/12/10 05:04:03;;;;;;;23.87;11.83;;;;;;;-3.11;97.90;96977.09;1774606;79;21058;-78
2020/12/10 05:06:30;;;;;;;27.83;11.97;;;;;;;-3.10;97.81;96960.95;1774723;81;20941;-80
2020/12/10 05:09:08;;;;;;;20.50;10.63;;;;;;;-3.06;97.80;96966.74;1774536;81;21688;-79
2020/12/10 05:11:36;;;;;;;18.63;9.53;;;;;;;-3.06;97.74;96965.47;1774527;79;21057;-78
2020/12/10 05:14:03;;;;;;;18.17;8.33;;;;;;;-3.02;97.61;96975.95;1774490;79;21039;-79
2020/12/10 05:16:30;;;;;;;19.17;9.47;;;;;;;-3.01;97.32;96972.07;1774485;81;21110;-79
2020/12/10 05:19:18;;;;;;;17.90;9.00;;;;;;;-2.99;97.21;96975.38;1774594;81;21095;-79
2020/12/10 05:22:03;;;;;;;17.13;8.33;;;;;;;-2.96;97.17;96968.11;1774360;80;21192;-78
2020/12/10 05:24:32;;;;;;;17.83;9.23;;;;;;;-2.94;96.94;96966.33;1774363;80;21288;-79
2020/12/10 05:27:21;;;;;;;17.60;8.50;;;;;;;-2.94;96.61;96973.97;1774423;81;21087;-77
2020/12/10 05:29:51;;;;;;;15.33;7.70;;;;;;;-2.93;96.52;96962.90;1774401;81;21004;-78
2020/12/10 05:32:34;;;;;;;18.93;9.00;;;;;;;-2.91;96.65;96959.84;1774395;79;20992;-78
2020/12/10 05:35:23;;;;;;;17.48;9.10;;;;;;;-2.87;96.66;96956.33;1773959;80;21201;-78
2020/12/10 05:37:53;;;;;;;17.37;8.43;;;;;;;-2.83;96.33;96948.95;1774388;81;21355;-77
2020/12/10 05:40:20;;;;;;;17.10;8.37;;;;;;;-2.82;96.05;96950.16;1774499;81;21130;-79
2020/12/10 05:42:49;;;;;;;16.90;8.27;;;;;;;-2.80;96.00;96962.86;1774391;79;21000;-79
2020/12/10 05:45:20;;;;;;;17.83;7.77;;;;;;;-2.80;95.87;96955.23;1774479;81;20957;-78
2020/12/10 05:47:51;;;;;;;15.63;8.10;;;;;;;-2.82;95.82;96953.98;1773864;80;21238;-78
2020/12/10 05:50:26;;;;;;;17.20;8.10;;;;;;;-2.77;96.03;96957.65;1774450;79;20957;-77
2020/12/10 05:53:11;;;;;;;14.07;7.33;;;;;;;-2.77;95.82;96958.92;1760471;81;20929;-82
2020/12/10 05:55:45;;;;;;;15.80;7.00;;;;;;;-2.73;95.98;96960.90;1749210;79;21073;-81
2020/12/10 05:58:12;;;;;;;14.73;7.77;;;;;;;-2.72;95.86;96940.95;1720313;82;21051;-84
2020/12/10 06:00:40;;;;;;;16.03;8.87;;;;;;;-2.68;96.07;96952.22;1750798;80;21428;-76
2020/12/10 06:03:07;;;;;;;18.50;8.30;;;;;;;-2.63;96.14;96947.80;1721094;81;21152;-76
2020/12/10 06:05:34;;;;;;;14.97;7.37;;;;;;;-2.55;96.02;96947.52;1761502;78;21180;-75
2020/12/10 06:08:06;;;;;;;16.13;8.60;;;;;;;-2.54;95.66;96945.36;1797603;78;21198;-73
2020/12/10 06:10:41;;;;;;;12.97;6.80;;;;;;;-2.51;95.70;96963.05;1789518;78;21532;-77
2020/12/10 06:13:11;;;;;;;16.07;8.23;;;;;;;-2.51;95.41;96938.86;1779753;78;21983;-76
2020/12/10 06:15:38;;;;;;;16.90;8.80;;;;;;;-2.55;95.51;96955.98;1778474;78;21119;-78
2020/12/10 06:18:15;;;;;;;17.33;8.83;;;;;;;-2.55;95.76;96953.88;1723266;81;21132;-77
2020/12/10 06:20:43;;;;;;;17.47;8.73;;;;;;;-2.52;95.93;96949.11;1766854;80;21148;-81
2020/12/10 06:23:31;;;;;;;13.37;7.03;;;;;;;-2.46;96.10;96948.89;1796446;79;21156;-80
2020/12/10 06:26:26;;;;;;;15.63;8.00;;;;;;;-2.44;95.74;96948.38;1791243;79;21571;-86
2020/12/10 06:29:20;;;;;;;14.23;7.40;;;;;;;-2.41;95.89;96940.61;1786934;79;21124;-77
2020/12/10 06:32:11;;;;;;;12.75;7.17;;;;;;;-2.38;95.87;96930.33;1759210;79;21172;-78
2020/12/10 06:34:51;;;;;;;14.68;8.05;;;;;;;-2.36;95.70;96932.38;1766303;81;21160;-80
2020/12/10 06:37:30;;;;;;;15.93;7.20;;;;;;;-2.37;95.49;96917.98;1731746;82;21524;-81
2020/12/10 06:40:03;;;;;;;16.77;7.90;;;;;;;-2.35;95.75;96913.20;1787942;78;21361;-78
2020/12/10 06:42:48;;;;;;;14.67;7.13;;;;;;;-2.33;95.78;96914.41;1789999;79;21163;-84
2020/12/10 06:45:31;;;;;;;13.47;6.97;;;;;;;-2.28;95.87;96908.27;1776417;78;21097;-83
2020/12/10 06:48:06;;;;;;;13.60;7.23;;;;;;;-2.23;95.77;96906.82;1719599;83;21136;-79
2020/12/10 06:50:38;;;;;;;14.17;7.83;;;;;;;-2.18;95.61;96904.08;1779149;78;21463;-83
2020/12/10 06:53:21;;;;;;;16.33;8.27;;;;;;;-2.14;95.39;96901.36;1793549;78;21200;-82
2020/12/10 06:56:12;;;;;;;14.20;7.27;;;;;;;-2.12;95.07;96895.75;1797887;78;21223;-80
2020/12/10 06:58:42;;;;;;;16.00;8.17;;;;;;;-2.12;94.90;96890.66;1735080;82;21164;-82
2020/12/10 07:01:27;;;;;;;13.03;6.93;;;;;;;-2.13;94.74;96886.45;1728139;81;21183;-78
2020/12/10 07:04:20;;;;;;;14.00;7.20;;;;;;;-2.12;94.75;96885.56;1819130;78;21100;-81
2020/12/10 07:06:47;;;;;;;17.07;8.33;;;;;;;-2.12;94.71;96884.73;1794969;78;21370;-82
2020/12/10 07:09:14;;;;;;;15.20;8.07;;;;;;;-2.11;94.86;96887.22;1807146;78;21128;-79
2020/12/10 07:11:45;;;;;;;12.57;7.33;;;;;;;-2.10;94.51;96882.50;1793957;78;21638;-81
2020/12/10 07:14:25;;;;;;;14.07;7.87;;;;;;;-2.15;94.02;96890.79;1813130;78;20950;-82
2020/12/10 07:16:55;;;;;;;15.07;7.60;;;;;;;-2.20;94.28;96886.31;1793534;78;21180;-82
2020/12/10 07:19:24;;;;;;;14.13;7.30;;;;;;;-2.24;94.60;96878.39;1812483;78;21131;-81
2020/12/10 07:21:51;;;;;;;13.97;6.90;;;;;;;-2.24;94.84;96891.58;1796889;78;21530;-77
2020/12/10 07:24:18;;;;;;;14.57;6.53;;;;;;;-2.25;95.06;96875.46;1781541;79;21126;-77
2020/12/10 07:26:46;;;;;;;11.70;6.47;;;;;;;-2.22;95.26;96866.89;1787423;78;21115;-77
2020/12/10 07:29:13;;;;;;;16.20;7.83;;;;;;;-2.20;95.30;96881.22;1757216;79;21131;-78
2020/12/10 07:31:42;;;;;;;11.10;5.67;;;;;;;-2.20;95.31;96877.84;1718515;82;21195;-76
2020/12/10 07:34:12;;;;;;;13.63;6.97;;;;;;;-2.17;95.53;96897.64;1744752;81;21145;-77
2020/12/10 07:36:51;;;;;;;11.50;6.00;;;;;;;-2.15;95.30;96884.84;1731996;81;21125;-81
2020/12/10 07:39:31;;;;;;;14.93;7.17;;;;;;;-2.17;95.21;96877.27;1737756;81;21181;-81
2020/12/10 07:41:59;;;;;;;14.23;7.27;;;;;;;-2.14;95.60;96881.42;1793585;78;21102;-79
2020/12/10 07:44:31;;;;;;;12.53;6.37;;;;;;;-2.10;95.74;96885.05;1800713;78;21837;-80
2020/12/10 07:46:59;;;;;;;15.30;7.25;;;;;;;-2.09;96.02;96883.33;1809322;78;21154;-76
2020/12/10 07:49:31;;;;;;;15.03;7.20;;;;;;;-2.09;97.02;96884.16;1803496;78;21147;-77
2020/12/10 07:52:10;;;;;;;16.07;7.90;;;;;;;-2.10;98.30;96886.77;1806135;78;21107;-80
2020/12/10 07:54:49;;;;;;;14.93;6.47;;;;;;;-2.08;99.04;96895.17;1730912;82;21211;-80
2020/12/10 07:57:32;;;;;;;15.30;7.67;;;;;;;-2.08;99.08;96896.00;1780936;80;21446;-78
2020/12/10 08:00:06;;;;;;;11.07;5.83;;;;;;;-2.09;99.01;96882.05;1776005;80;21016;-84
2020/12/10 08:03:06;;;;;;;15.07;6.83;;;;;;;-2.09;99.06;96898.17;1757230;80;21127;-80
2020/12/10 08:05:34;;;;;;;13.77;6.30;;;;;;;-2.07;99.55;96891.31;1773976;80;21180;-82
2020/12/10 08:08:01;;;;;;;13.10;6.67;;;;;;;-2.04;99.52;96897.55;1777877;80;21180;-77
2020/12/10 08:10:31;;;;;;;12.33;6.23;;;;;;;-2.04;99.60;96891.19;1785387;80;21201;-79
2020/12/10 08:13:15;;;;;;;9.97;5.43;;;;;;;-2.03;99.45;96868.63;1760644;80;21180;-76
2020/12/10 08:15:49;;;;;;;13.97;6.50;;;;;;;-2.00;99.83;96867.22;1770935;80;21145;-84
2020/12/10 08:18:20;;;;;;;14.10;6.93;;;;;;;-1.99;99.94;96860.40;1783899;80;21168;-81
2020/12/10 08:20:51;;;;;;;18.90;8.03;;;;;;;-1.95;100.00;96868.77;1783873;79;21528;-81
2020/12/10 08:23:44;;;;;;;11.30;6.23;;;;;;;-1.88;100.00;96873.55;1836417;76;23863;-80
2020/12/10 08:26:13;;;;;;;12.10;5.60;;;;;;;-1.91;100.00;96863.91;1791070;79;21039;-76
2020/12/10 08:28:57;;;;;;;22.50;9.00;;;;;;;-1.89;100.00;96869.35;1766405;81;21160;-79
2020/12/10 08:31:29;;;;;;;12.53;5.57;;;;;;;-1.84;100.00;96878.06;1766346;80;21032;-79
2020/12/10 08:33:57;;;;;;;10.78;5.80;;;;;;;-1.83;100.00;96866.52;1789042;79;21364;-81
2020/12/10 08:36:34;;;;;;;11.20;4.83;;;;;;;-1.83;100.00;96869.52;1811548;79;21049;-77
2020/12/10 08:39:07;;;;;;;10.37;5.37;;;;;;;-1.83;100.00;96861.88;1740915;81;20946;-80
2020/12/10 08:41:39;;;;;;;11.80;6.00;;;;;;;-1.86;100.00;96852.64;1773333;81;21208;-78
2020/12/10 08:44:09;;;;;;;10.23;5.50;;;;;;;-1.86;100.00;96862.02;1787593;80;21006;-80
2020/12/10 08:46:37;;;;;;;9.83;5.27;;;;;;;-1.85;100.00;96849.20;1841246;77;20985;-82
2020/12/10 08:49:23;;;;;;;11.50;5.47;;;;;;;-1.77;100.00;96852.70;1785219;79;21148;-80
2020/12/10 08:51:51;;;;;;;12.43;5.90;;;;;;;-1.76;100.00;96860.73;1815861;77;21115;-82
2020/12/10 08:54:18;;;;;;;11.40;5.73;;;;;;;-1.75;100.00;96848.37;1803725;79;21801;-82
2020/12/10 08:56:45;;;;;;;17.27;6.93;;;;;;;-1.73;100.00;96857.62;1789169;79;21115;-80
2020/12/10 08:59:13;;;;;;;11.20;6.20;;;;;;;-1.69;100.00;96827.72;1783687;77;21067;-81
2020/12/10 09:01:51;;;;;;;10.70;5.30;;;;;;;-1.66;100.00;96830.13;1784514;78;21174;-81
2020/12/10 09:04:23;;;;;;;12.17;5.70;;;;;;;-1.61;100.00;96828.22;1792944;78;20917;-76
2020/12/10 09:06:50;;;;;;;13.03;5.60;;;;;;;-1.55;100.00;96834.80;1777752;79;21540;-79
2020/12/10 09:09:20;;;;;;;10.03;5.50;;;;;;;-1.54;100.00;96832.17;1828241;77;21110;-80
2020/12/10 09:11:48;;;;;;;12.47;5.37;;;;;;;-1.52;100.00;96838.02;1851863;77;21424;-76
2020/12/10 09:14:15;;;;;;;12.30;6.23;;;;;;;-1.50;100.00;96838.78;1851988;77;21112;-78
2020/12/10 09:16:43;;;;;;;11.03;5.30;;;;;;;-1.48;100.00;96811.51;1771299;81;21124;-81
2020/12/10 09:19:10;;;;;;;10.87;5.27;;;;;;;-1.47;100.00;96809.34;1791292;80;22288;-79
2020/12/10 09:21:37;;;;;;;13.33;6.20;;;;;;;-1.43;99.85;96804.92;1844462;77;21381;-80
2020/12/10 09:24:05;;;;;;;13.53;6.93;;;;;;;-1.36;100.00;96802.93;1812078;78;21152;-79
2020/12/10 09:26:32;;;;;;;12.97;6.40;;;;;;;-1.23;100.00;96805.33;1722236;81;21149;-80
2020/12/10 09:29:09;;;;;;;10.33;6.00;;;;;;;-1.15;99.46;96799.44;1753106;80;21069;-80
2020/12/10 09:31:36;;;;;;;10.30;5.00;;;;;;;-1.08;98.74;96803.34;1781535;78;21577;-80
2020/12/10 09:34:04;;;;;;;21.00;6.57;;;;;;;-1.06;97.83;96793.91;1782955;79;21156;-81
2020/12/10 09:36:41;;;;;;;10.00;6.27;;;;;;;-1.06;97.28;96814.78;1789758;79;21083;-79
2020/12/10 09:39:09;;;;;;;14.53;5.70;;;;;;;-1.06;97.38;96816.05;1780074;79;21136;-79
2020/12/10 09:41:36;;;;;;;7.17;4.60;;;;;;;-1.01;97.04;96794.96;1789521;79;21200;-85
2020/12/10 09:44:03;;;;;;;10.20;6.03;;;;;;;-1.00;96.67;96811.48;1800166;78;21987;-79
2020/12/10 09:46:33;;;;;;;10.00;5.37;;;;;;;-0.97;96.46;96806.25;1738175;81;21172;-83
2020/12/10 09:49:01;;;;;;;11.23;5.73;;;;;;;-0.94;96.18;96803.55;1724361;81;21161;-77
2020/12/10 09:51:35;;;;;;;6.53;3.60;;;;;;;-0.94;96.02;96794.61;1736200;81;21168;-76
2020/12/10 09:54:03;;;;;;;7.53;4.33;;;;;;;-0.93;95.99;96791.61;1731813;81;21156;-78
2020/12/10 09:56:42;;;;;;;7.70;4.27;;;;;;;-0.92;95.99;96787.70;1733696;81;21685;-78
2020/12/10 09:59:05;;;;;;;9.00;3.77;;;;;;;-0.88;95.86;96782.02;1735730;80;21626;-78
2020/12/10 10:01:32;;;;;;;13.80;8.20;;;;;;;-0.85;95.58;96784.42;1803054;78;21203;-77
2020/12/10 10:04:00;;;;;;;7.53;3.87;;;;;;;-0.79;95.65;96783.33;1788265;78;21108;-77
2020/12/10 10:06:28;;;;;;;8.00;3.60;;;;;;;-0.79;94.88;96790.98;1746670;80;21591;-77
2020/12/10 10:08:56;;;;;;;7.27;4.83;;;;;;;-0.81;94.98;96798.72;1809229;78;21770;-81
2020/12/10 10:11:23;;;;;;;9.93;6.43;;;;;;;-0.82;95.04;96788.13;1782053;79;21482;-83
2020/12/10 10:13:51;;;;;;;8.47;4.70;;;;;;;-0.81;94.90;96785.13;1773386;80;21207;-77
2020/12/10 10:16:18;;;;;;;8.67;4.83;;;;;;;-0.79;94.76;96784.59;1786647;79;21113;-77
2020/12/10 10:18:45;;;;;;;8.53;4.77;;;;;;;-0.80;94.53;96796.99;1788568;78;21175;-77
2020/12/10 10:21:19;;;;;;;9.50;5.20;;;;;;;-0.80;94.64;96796.99;1783113;77;21545;-80
2020/12/10 10:23:46;;;;;;;9.97;6.20;;;;;;;-0.75;94.81;96780.98;1777675;80;21124;-82
2020/12/10 10:26:13;;;;;;;8.67;4.33;;;;;;;-0.69;94.42;96780.25;1764113;79;21539;-77
2020/12/10 10:28:42;;;;;;;6.57;3.93;;;;;;;-0.65;94.22;96740.92;1811296;77;21494;-78
2020/12/10 10:31:09;;;;;;;8.93;4.57;;;;;;;-0.60;94.08;96743.23;1809609;78;21139;-79
2020/12/10 10:33:50;;;;;;;9.03;4.47;;;;;;;-0.50;93.94;96761.05;1822987;77;21226;-77
2020/12/10 10:36:21;;;;;;;9.70;5.37;;;;;;;-0.38;93.75;96766.03;1840671;77;20981;-76
2020/12/10 10:38:49;;;;;;;11.27;5.77;;;;;;;-0.30;93.22;96757.54;1808749;77;21154;-77
2020/12/10 10:41:16;;;;;;;11.00;6.53;;;;;;;-0.19;92.95;96762.11;1796809;79;21135;-81
2020/12/10 10:43:43;;;;;;;7.53;4.43;;;;;;;-0.10;92.54;96761.20;1797187;78;21104;-77
2020/12/10 10:46:10;;;;;;;11.33;6.27;;;;;;;-0.06;92.06;96774.22;1797202;78;21645;-78
2020/12/10 10:48:38;;;;;;;13.47;7.40;;;;;;;-0.02;92.35;96762.92;1797586;78;21151;-80
2020/12/10 10:51:05;;;;;;;14.40;6.17;;;;;;;0.04;92.34;96764.36;1766672;80;21099;-82
2020/12/10 10:53:34;;;;;;;16.47;7.67;;;;;;;0.04;91.39;96765.64;1853073;77;21167;-79
2020/12/10 10:56:04;;;;;;;12.00;6.97;;;;;;;0.02;91.71;96771.73;1801886;78;21183;-80
2020/12/10 10:58:31;;;;;;;10.97;6.70;;;;;;;0.02;91.50;96782.79;1821222;77;21488;-79
2020/12/10 11:00:59;;;;;;;5.33;4.20;;;;;;;-0.04;91.26;96779.25;1810493;78;21178;-79
2020/12/10 11:03:26;;;;;;;19.40;12.27;;;;;;;-0.07;91.39;96795.58;1803916;78;21119;-79
2020/12/10 11:05:54;;;;;;;24.00;14.70;;;;;;;-0.08;91.58;96794.38;1805718;78;21091;-78
2020/12/10 11:08:22;;;;;;;17.57;10.60;;;;;;;-0.09;91.54;96788.87;1805693;78;21163;-79
2020/12/10 11:10:49;;;;;;;13.37;7.63;;;;;;;-0.10;91.50;96786.77;1763706;81;21390;-77
2020/12/10 11:13:18;;;;;;;9.53;6.47;;;;;;;-0.10;91.59;96766.77;1778321;79;21181;-82
2020/12/10 11:15:45;;;;;;;7.13;4.13;;;;;;;-0.12;91.52;96766.85;1816916;77;21083;-81
2020/12/10 11:18:13;;;;;;;6.10;4.67;;;;;;;-0.16;91.59;96761.98;1820262;78;21129;-82
2020/12/10 11:20:41;;;;;;;5.73;3.20;;;;;;;-0.14;91.86;96752.50;1829627;78;21123;-81
2020/12/10 11:23:08;;;;;;;6.30;3.03;;;;;;;-0.11;91.96;96754.89;1826262;78;21304;-81
2020/12/10 11:25:37;;;;;;;16.70;8.77;;;;;;;-0.09;91.61;96750.53;1822982;78;21147;-80
2020/12/10 11:28:07;;;;;;;5.50;3.70;;;;;;;-0.11;91.48;96762.11;1810679;77;21649;-80
2020/12/10 11:30:35;;;;;;;3.97;2.70;;;;;;;-0.14;91.45;96757.16;1804402;77;21143;-80
2020/12/10 11:33:08;;;;;;;6.13;3.33;;;;;;;-0.13;91.66;96738.81;1815826;78;21124;-78
2020/12/10 11:35:39;;;;;;;3.47;2.70;;;;;;;-0.11;91.79;96735.27;1802904;77;21237;-81